sensor_id;sensor_type;location;lat;lon;timestamp;P1;durP1;ratioP1;P2;durP2;ratioP2
24619;SDS011;12763;55.802;37.404;2022-09-24T00:01:29;6.63;;;4.32;;
24619;SDS011;12763;55.802;37.404;2022-09-24T00:04:01;7.85;;;4.55;;
24619;SDS011;12763;55.802;37.404;2022-09-24T00:06:33;5.95;;;4.03;;
24619;SDS011;12763;55.802;37.404;2022-09-24T00:09:02;5.35;;;3.83;;
24619;SDS011;12763;55.802;37.404;2022-09-24T00:11:32;8.63;;;3.92;;
24619;SDS011;12763;55.802;37.404;2022-09-24T00:13:58;5.28;;;3.83;;
24619;SDS011;12763;55.802;37.404;2022-09-24T00:16:28;5.32;;;3.45;;
24619;SDS011;12763;55.802;37.404;2022-09-24T00:18:59;6.75;;;4.10;;
24619;SDS011;12763;55.802;37.404;2022-09-24T00:21:28;7.50;;;4.35;;
24619;SDS011;12763;55.802;37.404;2022-09-24T00:24:01;4.75;;;3.58;;
24619;SDS011;12763;55.802;37.404;2022-09-24T00:26:35;4.30;;;3.42;;
24619;SDS011;12763;55.802;37.404;2022-09-24T00:29:20;5.70;;;3.58;;
24619;SDS011;12763;55.802;37.404;2022-09-24T00:31:50;6.88;;;3.40;;
24619;SDS011;12763;55.802;37.404;2022-09-24T00:34:20;10.23;;;3.65;;
24619;SDS011;12763;55.802;37.404;2022-09-24T00:36:46;5.00;;;3.28;;
24619;SDS011;12763;55.802;37.404;2022-09-24T00:39:13;6.55;;;3.63;;
24619;SDS011;12763;55.802;37.404;2022-09-24T00:41:39;6.68;;;3.80;;
24619;SDS011;12763;55.802;37.404;2022-09-24T00:47:48;6.38;;;3.92;;
24619;SDS011;12763;55.802;37.404;2022-09-24T00:52:57;6.30;;;3.35;;
24619;SDS011;12763;55.802;37.404;2022-09-24T00:55:27;5.40;;;3.17;;
24619;SDS011;12763;55.802;37.404;2022-09-24T00:57:57;5.53;;;2.90;;
24619;SDS011;12763;55.802;37.404;2022-09-24T01:00:25;3.42;;;2.55;;
24619;SDS011;12763;55.802;37.404;2022-09-24T01:02:56;3.60;;;2.67;;
24619;SDS011;12763;55.802;37.404;2022-09-24T01:05:27;4.65;;;2.63;;
24619;SDS011;12763;55.802;37.404;2022-09-24T01:07:54;5.32;;;3.17;;
24619;SDS011;12763;55.802;37.404;2022-09-24T01:10:32;4.72;;;2.85;;
24619;SDS011;12763;55.802;37.404;2022-09-24T01:16:03;4.10;;;2.75;;
24619;SDS011;12763;55.802;37.404;2022-09-24T01:18:42;2.30;;;1.80;;
24619;SDS011;12763;55.802;37.404;2022-09-24T01:24:00;3.67;;;2.22;;
24619;SDS011;12763;55.802;37.404;2022-09-24T01:32:13;5.10;;;1.83;;
24619;SDS011;12763;55.802;37.404;2022-09-24T01:35:04;2.22;;;1.80;;
24619;SDS011;12763;55.802;37.404;2022-09-24T01:37:39;3.55;;;1.80;;
24619;SDS011;12763;55.802;37.404;2022-09-24T01:40:17;4.65;;;2.08;;
24619;SDS011;12763;55.802;37.404;2022-09-24T01:42:49;2.60;;;1.70;;
24619;SDS011;12763;55.802;37.404;2022-09-24T01:45:17;3.13;;;1.80;;
24619;SDS011;12763;55.802;37.404;2022-09-24T01:47:45;2.97;;;1.45;;
24619;SDS011;12763;55.802;37.404;2022-09-24T01:50:14;1.90;;;1.52;;
24619;SDS011;12763;55.802;37.404;2022-09-24T01:55:49;2.10;;;1.40;;
24619;SDS011;12763;55.802;37.404;2022-09-24T01:58:35;1.98;;;1.30;;
24619;SDS011;12763;55.802;37.404;2022-09-24T02:01:14;2.97;;;1.38;;
24619;SDS011;12763;55.802;37.404;2022-09-24T02:03:47;1.70;;;1.20;;
24619;SDS011;12763;55.802;37.404;2022-09-24T02:06:28;1.85;;;1.20;;
24619;SDS011;12763;55.802;37.404;2022-09-24T02:09:03;1.30;;;0.90;;
24619;SDS011;12763;55.802;37.404;2022-09-24T02:11:29;1.35;;;1.23;;
24619;SDS011;12763;55.802;37.404;2022-09-24T02:14:09;3.45;;;1.20;;
24619;SDS011;12763;55.802;37.404;2022-09-24T02:16:43;1.10;;;0.90;;
24619;SDS011;12763;55.802;37.404;2022-09-24T02:19:16;1.30;;;1.08;;
24619;SDS011;12763;55.802;37.404;2022-09-24T02:21:49;2.67;;;1.10;;
24619;SDS011;12763;55.802;37.404;2022-09-24T02:24:29;1.17;;;0.90;;
24619;SDS011;12763;55.802;37.404;2022-09-24T02:27:10;1.30;;;0.90;;
24619;SDS011;12763;55.802;37.404;2022-09-24T02:29:40;2.25;;;1.10;;
24619;SDS011;12763;55.802;37.404;2022-09-24T02:32:08;1.52;;;1.13;;
24619;SDS011;12763;55.802;37.404;2022-09-24T02:34:42;0.75;;;0.65;;
24619;SDS011;12763;55.802;37.404;2022-09-24T02:37:20;1.10;;;0.75;;
24619;SDS011;12763;55.802;37.404;2022-09-24T02:39:49;0.88;;;0.70;;
24619;SDS011;12763;55.802;37.404;2022-09-24T02:42:18;2.05;;;0.60;;
24619;SDS011;12763;55.802;37.404;2022-09-24T02:44:49;0.68;;;0.63;;
24619;SDS011;12763;55.802;37.404;2022-09-24T02:47:17;0.85;;;0.63;;
24619;SDS011;12763;55.802;37.404;2022-09-24T02:52:18;2.28;;;0.70;;
24619;SDS011;12763;55.802;37.404;2022-09-24T02:54:45;1.08;;;0.50;;
24619;SDS011;12763;55.802;37.404;2022-09-24T02:57:16;0.82;;;0.60;;
24619;SDS011;12763;55.802;37.404;2022-09-24T02:59:43;1.27;;;0.85;;
24619;SDS011;12763;55.802;37.404;2022-09-24T03:02:10;1.00;;;0.90;;
24619;SDS011;12763;55.802;37.404;2022-09-24T03:04:37;0.55;;;0.55;;
24619;SDS011;12763;55.802;37.404;2022-09-24T03:07:04;0.52;;;0.52;;
24619;SDS011;12763;55.802;37.404;2022-09-24T03:09:30;3.85;;;0.73;;
24619;SDS011;12763;55.802;37.404;2022-09-24T03:11:56;1.30;;;0.75;;
24619;SDS011;12763;55.802;37.404;2022-09-24T03:14:25;0.73;;;0.40;;
24619;SDS011;12763;55.802;37.404;2022-09-24T03:16:52;0.65;;;0.65;;
24619;SDS011;12763;55.802;37.404;2022-09-24T03:19:18;1.83;;;0.70;;
24619;SDS011;12763;55.802;37.404;2022-09-24T03:21:45;0.73;;;0.65;;
24619;SDS011;12763;55.802;37.404;2022-09-24T03:24:13;2.92;;;0.50;;
24619;SDS011;12763;55.802;37.404;2022-09-24T03:26:40;3.45;;;0.77;;
24619;SDS011;12763;55.802;37.404;2022-09-24T03:29:07;0.45;;;0.40;;
24619;SDS011;12763;55.802;37.404;2022-09-24T03:31:34;1.50;;;0.77;;
24619;SDS011;12763;55.802;37.404;2022-09-24T03:34:01;1.58;;;0.80;;
24619;SDS011;12763;55.802;37.404;2022-09-24T03:36:30;4.13;;;0.73;;
24619;SDS011;12763;55.802;37.404;2022-09-24T03:38:57;0.68;;;0.60;;
24619;SDS011;12763;55.802;37.404;2022-09-24T03:41:28;0.95;;;0.57;;
24619;SDS011;12763;55.802;37.404;2022-09-24T03:43:54;0.55;;;0.55;;
24619;SDS011;12763;55.802;37.404;2022-09-24T03:46:28;1.08;;;0.52;;
24619;SDS011;12763;55.802;37.404;2022-09-24T03:48:55;0.63;;;0.60;;
24619;SDS011;12763;55.802;37.404;2022-09-24T03:51:23;0.70;;;0.70;;
24619;SDS011;12763;55.802;37.404;2022-09-24T03:53:50;1.30;;;0.50;;
24619;SDS011;12763;55.802;37.404;2022-09-24T03:56:17;0.52;;;0.50;;
24619;SDS011;12763;55.802;37.404;2022-09-24T03:58:43;0.30;;;0.30;;
24619;SDS011;12763;55.802;37.404;2022-09-24T04:01:13;0.70;;;0.52;;
24619;SDS011;12763;55.802;37.404;2022-09-24T04:03:48;0.60;;;0.40;;
24619;SDS011;12763;55.802;37.404;2022-09-24T04:06:15;1.48;;;0.80;;
24619;SDS011;12763;55.802;37.404;2022-09-24T04:08:42;0.70;;;0.70;;
24619;SDS011;12763;55.802;37.404;2022-09-24T04:11:17;1.17;;;0.70;;
24619;SDS011;12763;55.802;37.404;2022-09-24T04:13:46;0.80;;;0.57;;
24619;SDS011;12763;55.802;37.404;2022-09-24T04:16:16;0.38;;;0.30;;
24619;SDS011;12763;55.802;37.404;2022-09-24T04:18:42;0.50;;;0.50;;
24619;SDS011;12763;55.802;37.404;2022-09-24T04:21:09;0.55;;;0.50;;
24619;SDS011;12763;55.802;37.404;2022-09-24T04:23:35;0.70;;;0.65;;
24619;SDS011;12763;55.802;37.404;2022-09-24T04:26:02;1.27;;;0.73;;
24619;SDS011;12763;55.802;37.404;2022-09-24T04:28:31;0.40;;;0.40;;
24619;SDS011;12763;55.802;37.404;2022-09-24T04:30:57;1.92;;;0.65;;
24619;SDS011;12763;55.802;37.404;2022-09-24T04:33:24;1.95;;;0.70;;
24619;SDS011;12763;55.802;37.404;2022-09-24T04:35:51;0.40;;;0.40;;
24619;SDS011;12763;55.802;37.404;2022-09-24T04:38:20;1.95;;;0.80;;
24619;SDS011;12763;55.802;37.404;2022-09-24T04:40:50;1.15;;;0.63;;
24619;SDS011;12763;55.802;37.404;2022-09-24T04:43:17;0.52;;;0.52;;
24619;SDS011;12763;55.802;37.404;2022-09-24T04:45:43;0.70;;;0.70;;
24619;SDS011;12763;55.802;37.404;2022-09-24T04:48:12;1.15;;;0.63;;
24619;SDS011;12763;55.802;37.404;2022-09-24T04:50:38;1.33;;;0.77;;
24619;SDS011;12763;55.802;37.404;2022-09-24T04:53:05;1.70;;;0.68;;
24619;SDS011;12763;55.802;37.404;2022-09-24T04:55:32;2.85;;;1.05;;
24619;SDS011;12763;55.802;37.404;2022-09-24T04:57:58;1.90;;;0.82;;
24619;SDS011;12763;55.802;37.404;2022-09-24T05:00:27;1.70;;;0.90;;
24619;SDS011;12763;55.802;37.404;2022-09-24T05:02:59;0.77;;;0.70;;
24619;SDS011;12763;55.802;37.404;2022-09-24T05:05:27;1.90;;;0.80;;
24619;SDS011;12763;55.802;37.404;2022-09-24T05:07:54;0.55;;;0.50;;
24619;SDS011;12763;55.802;37.404;2022-09-24T05:10:24;0.68;;;0.52;;
24619;SDS011;12763;55.802;37.404;2022-09-24T05:12:51;1.65;;;0.73;;
24619;SDS011;12763;55.802;37.404;2022-09-24T05:15:31;1.65;;;0.60;;
24619;SDS011;12763;55.802;37.404;2022-09-24T05:18:00;0.70;;;0.50;;
24619;SDS011;12763;55.802;37.404;2022-09-24T05:20:27;0.60;;;0.60;;
24619;SDS011;12763;55.802;37.404;2022-09-24T05:22:54;2.03;;;0.40;;
24619;SDS011;12763;55.802;37.404;2022-09-24T05:25:20;1.65;;;0.45;;
24619;SDS011;12763;55.802;37.404;2022-09-24T05:27:48;0.45;;;0.45;;
24619;SDS011;12763;55.802;37.404;2022-09-24T05:30:16;0.75;;;0.52;;
24619;SDS011;12763;55.802;37.404;2022-09-24T05:32:43;0.73;;;0.30;;
24619;SDS011;12763;55.802;37.404;2022-09-24T05:35:13;1.33;;;0.88;;
24619;SDS011;12763;55.802;37.404;2022-09-24T05:37:41;0.70;;;0.55;;
24619;SDS011;12763;55.802;37.404;2022-09-24T05:40:13;2.25;;;0.60;;
24619;SDS011;12763;55.802;37.404;2022-09-24T05:42:59;0.85;;;0.73;;
24619;SDS011;12763;55.802;37.404;2022-09-24T05:45:27;2.63;;;0.50;;
24619;SDS011;12763;55.802;37.404;2022-09-24T05:47:55;0.70;;;0.43;;
24619;SDS011;12763;55.802;37.404;2022-09-24T05:50:21;5.75;;;0.77;;
24619;SDS011;12763;55.802;37.404;2022-09-24T05:52:51;0.40;;;0.32;;
24619;SDS011;12763;55.802;37.404;2022-09-24T05:55:17;1.02;;;0.63;;
24619;SDS011;12763;55.802;37.404;2022-09-24T05:57:43;1.30;;;0.40;;
24619;SDS011;12763;55.802;37.404;2022-09-24T06:00:09;1.73;;;0.82;;
24619;SDS011;12763;55.802;37.404;2022-09-24T06:02:39;0.50;;;0.40;;
24619;SDS011;12763;55.802;37.404;2022-09-24T06:05:06;0.85;;;0.70;;
24619;SDS011;12763;55.802;37.404;2022-09-24T06:07:32;0.98;;;0.45;;
24619;SDS011;12763;55.802;37.404;2022-09-24T06:10:01;0.70;;;0.50;;
24619;SDS011;12763;55.802;37.404;2022-09-24T06:12:28;1.02;;;0.63;;
24619;SDS011;12763;55.802;37.404;2022-09-24T06:14:55;1.33;;;0.50;;
24619;SDS011;12763;55.802;37.404;2022-09-24T06:17:21;13.20;;;0.65;;
24619;SDS011;12763;55.802;37.404;2022-09-24T06:19:48;0.52;;;0.50;;
24619;SDS011;12763;55.802;37.404;2022-09-24T06:22:14;0.73;;;0.40;;
24619;SDS011;12763;55.802;37.404;2022-09-24T06:24:40;0.70;;;0.47;;
24619;SDS011;12763;55.802;37.404;2022-09-24T06:27:06;4.13;;;0.40;;
24619;SDS011;12763;55.802;37.404;2022-09-24T06:29:33;4.88;;;0.52;;
24619;SDS011;12763;55.802;37.404;2022-09-24T06:32:00;1.20;;;0.57;;
24619;SDS011;12763;55.802;37.404;2022-09-24T06:34:27;2.33;;;0.77;;
24619;SDS011;12763;55.802;37.404;2022-09-24T06:36:53;1.17;;;0.77;;
24619;SDS011;12763;55.802;37.404;2022-09-24T06:39:27;0.93;;;0.57;;
24619;SDS011;12763;55.802;37.404;2022-09-24T06:41:53;1.33;;;0.75;;
24619;SDS011;12763;55.802;37.404;2022-09-24T06:44:21;1.10;;;0.80;;
24619;SDS011;12763;55.802;37.404;2022-09-24T06:46:50;1.42;;;0.82;;
24619;SDS011;12763;55.802;37.404;2022-09-24T06:49:19;1.05;;;0.77;;
24619;SDS011;12763;55.802;37.404;2022-09-24T06:51:48;0.50;;;0.50;;
24619;SDS011;12763;55.802;37.404;2022-09-24T06:54:15;3.63;;;0.88;;
24619;SDS011;12763;55.802;37.404;2022-09-24T06:56:42;0.60;;;0.60;;
24619;SDS011;12763;55.802;37.404;2022-09-24T06:59:11;2.55;;;0.60;;
24619;SDS011;12763;55.802;37.404;2022-09-24T07:01:37;0.75;;;0.63;;
24619;SDS011;12763;55.802;37.404;2022-09-24T07:04:06;0.88;;;0.70;;
24619;SDS011;12763;55.802;37.404;2022-09-24T07:06:35;0.73;;;0.70;;
24619;SDS011;12763;55.802;37.404;2022-09-24T07:09:20;1.25;;;0.70;;
24619;SDS011;12763;55.802;37.404;2022-09-24T07:11:47;1.25;;;0.70;;
24619;SDS011;12763;55.802;37.404;2022-09-24T07:14:14;2.25;;;0.93;;
24619;SDS011;12763;55.802;37.404;2022-09-24T07:16:40;1.23;;;0.82;;
24619;SDS011;12763;55.802;37.404;2022-09-24T07:19:06;2.00;;;1.20;;
24619;SDS011;12763;55.802;37.404;2022-09-24T07:21:33;1.15;;;0.90;;
24619;SDS011;12763;55.802;37.404;2022-09-24T07:24:00;1.52;;;0.77;;
24619;SDS011;12763;55.802;37.404;2022-09-24T07:26:29;1.08;;;1.00;;
24619;SDS011;12763;55.802;37.404;2022-09-24T07:28:56;1.38;;;0.93;;
24619;SDS011;12763;55.802;37.404;2022-09-24T07:31:23;2.60;;;0.73;;
24619;SDS011;12763;55.802;37.404;2022-09-24T07:33:49;1.20;;;0.85;;
24619;SDS011;12763;55.802;37.404;2022-09-24T07:36:16;0.60;;;0.60;;
24619;SDS011;12763;55.802;37.404;2022-09-24T07:38:46;1.27;;;0.80;;
24619;SDS011;12763;55.802;37.404;2022-09-24T07:41:17;4.68;;;1.50;;
24619;SDS011;12763;55.802;37.404;2022-09-24T07:43:45;0.52;;;0.40;;
24619;SDS011;12763;55.802;37.404;2022-09-24T07:46:17;1.40;;;0.68;;
24619;SDS011;12763;55.802;37.404;2022-09-24T07:48:44;2.45;;;0.98;;
24619;SDS011;12763;55.802;37.404;2022-09-24T07:51:11;1.45;;;0.80;;
24619;SDS011;12763;55.802;37.404;2022-09-24T07:53:38;1.00;;;0.90;;
24619;SDS011;12763;55.802;37.404;2022-09-24T07:56:04;1.65;;;1.20;;
24619;SDS011;12763;55.802;37.404;2022-09-24T07:58:31;3.58;;;0.98;;
24619;SDS011;12763;55.802;37.404;2022-09-24T08:00:57;2.17;;;0.80;;
24619;SDS011;12763;55.802;37.404;2022-09-24T08:03:27;2.22;;;1.00;;
24619;SDS011;12763;55.802;37.404;2022-09-24T08:05:53;1.75;;;1.45;;
24619;SDS011;12763;55.802;37.404;2022-09-24T08:08:23;1.55;;;0.88;;
24619;SDS011;12763;55.802;37.404;2022-09-24T08:10:50;1.20;;;0.70;;
24619;SDS011;12763;55.802;37.404;2022-09-24T08:13:17;1.15;;;0.75;;
24619;SDS011;12763;55.802;37.404;2022-09-24T08:15:43;2.97;;;1.35;;
24619;SDS011;12763;55.802;37.404;2022-09-24T08:18:12;0.88;;;0.80;;
24619;SDS011;12763;55.802;37.404;2022-09-24T08:20:39;1.02;;;0.70;;
24619;SDS011;12763;55.802;37.404;2022-09-24T08:23:06;3.72;;;0.68;;
24619;SDS011;12763;55.802;37.404;2022-09-24T08:25:37;1.20;;;1.00;;
24619;SDS011;12763;55.802;37.404;2022-09-24T08:28:04;1.65;;;0.80;;
24619;SDS011;12763;55.802;37.404;2022-09-24T08:30:34;0.90;;;0.70;;
24619;SDS011;12763;55.802;37.404;2022-09-24T08:33:00;1.83;;;0.90;;
24619;SDS011;12763;55.802;37.404;2022-09-24T08:35:31;1.05;;;0.90;;
24619;SDS011;12763;55.802;37.404;2022-09-24T08:37:59;3.60;;;0.68;;
24619;SDS011;12763;55.802;37.404;2022-09-24T08:40:27;2.88;;;1.35;;
24619;SDS011;12763;55.802;37.404;2022-09-24T08:42:59;1.48;;;1.00;;
24619;SDS011;12763;55.802;37.404;2022-09-24T08:45:57;2.17;;;0.95;;
24619;SDS011;12763;55.802;37.404;2022-09-24T08:48:54;5.72;;;1.00;;
24619;SDS011;12763;55.802;37.404;2022-09-24T08:51:25;3.40;;;1.15;;
24619;SDS011;12763;55.802;37.404;2022-09-24T08:56:31;1.45;;;1.00;;
24619;SDS011;12763;55.802;37.404;2022-09-24T08:59:03;1.98;;;1.23;;
24619;SDS011;12763;55.802;37.404;2022-09-24T09:01:56;2.10;;;0.95;;
24619;SDS011;12763;55.802;37.404;2022-09-24T09:04:51;5.07;;;1.88;;
24619;SDS011;12763;55.802;37.404;2022-09-24T09:07:24;2.10;;;0.93;;
24619;SDS011;12763;55.802;37.404;2022-09-24T09:10:14;2.65;;;1.00;;
24619;SDS011;12763;55.802;37.404;2022-09-24T09:12:54;4.43;;;1.13;;
24619;SDS011;12763;55.802;37.404;2022-09-24T09:15:28;4.10;;;1.10;;
24619;SDS011;12763;55.802;37.404;2022-09-24T09:18:00;3.40;;;1.60;;
24619;SDS011;12763;55.802;37.404;2022-09-24T09:20:51;2.45;;;1.40;;
24619;SDS011;12763;55.802;37.404;2022-09-24T09:23:21;2.83;;;1.15;;
24619;SDS011;12763;55.802;37.404;2022-09-24T09:25:58;1.25;;;0.80;;
24619;SDS011;12763;55.802;37.404;2022-09-24T09:28:31;1.50;;;1.00;;
24619;SDS011;12763;55.802;37.404;2022-09-24T09:31:02;4.25;;;1.50;;
24619;SDS011;12763;55.802;37.404;2022-09-24T09:41:52;4.47;;;1.60;;
24619;SDS011;12763;55.802;37.404;2022-09-24T09:44:28;1.33;;;1.10;;
24619;SDS011;12763;55.802;37.404;2022-09-24T09:49:44;1.13;;;0.77;;
24619;SDS011;12763;55.802;37.404;2022-09-24T09:52:18;1.63;;;0.90;;
24619;SDS011;12763;55.802;37.404;2022-09-24T09:54:46;1.13;;;1.00;;
24619;SDS011;12763;55.802;37.404;2022-09-24T09:57:17;4.72;;;1.35;;
24619;SDS011;12763;55.802;37.404;2022-09-24T09:59:48;1.83;;;0.95;;
24619;SDS011;12763;55.802;37.404;2022-09-24T10:02:19;2.95;;;0.90;;
24619;SDS011;12763;55.802;37.404;2022-09-24T10:04:53;2.25;;;0.90;;
24619;SDS011;12763;55.802;37.404;2022-09-24T10:07:22;1.15;;;0.90;;
24619;SDS011;12763;55.802;37.404;2022-09-24T10:13:08;1.40;;;0.90;;
24619;SDS011;12763;55.802;37.404;2022-09-24T10:18:29;3.92;;;1.00;;
24619;SDS011;12763;55.802;37.404;2022-09-24T10:21:00;1.20;;;0.80;;
24619;SDS011;12763;55.802;37.404;2022-09-24T10:23:37;2.17;;;1.13;;
24619;SDS011;12763;55.802;37.404;2022-09-24T10:26:05;2.70;;;0.88;;
24619;SDS011;12763;55.802;37.404;2022-09-24T10:28:33;1.92;;;1.10;;
24619;SDS011;12763;55.802;37.404;2022-09-24T10:31:25;1.15;;;0.70;;
24619;SDS011;12763;55.802;37.404;2022-09-24T10:33:56;0.90;;;0.90;;
24619;SDS011;12763;55.802;37.404;2022-09-24T10:36:26;0.77;;;0.65;;
24619;SDS011;12763;55.802;37.404;2022-09-24T10:39:08;1.80;;;0.93;;
24619;SDS011;12763;55.802;37.404;2022-09-24T10:41:46;1.33;;;1.00;;
24619;SDS011;12763;55.802;37.404;2022-09-24T10:44:14;0.88;;;0.77;;
24619;SDS011;12763;55.802;37.404;2022-09-24T10:55:12;1.00;;;0.90;;
24619;SDS011;12763;55.802;37.404;2022-09-24T11:03:39;1.20;;;0.95;;
24619;SDS011;12763;55.802;37.404;2022-09-24T11:06:21;3.00;;;0.88;;
24619;SDS011;12763;55.802;37.404;2022-09-24T11:11:54;1.75;;;0.98;;
24619;SDS011;12763;55.802;37.404;2022-09-24T11:38:52;1.27;;;0.90;;
24619;SDS011;12763;55.802;37.404;2022-09-24T11:57:49;7.45;;;2.15;;
24619;SDS011;12763;55.802;37.404;2022-09-24T12:00:39;2.28;;;1.30;;
24619;SDS011;12763;55.802;37.404;2022-09-24T12:06:00;1.30;;;1.02;;
24619;SDS011;12763;55.802;37.404;2022-09-24T12:11:49;4.13;;;2.10;;
24619;SDS011;12763;55.802;37.404;2022-09-24T12:17:06;2.13;;;1.45;;
24619;SDS011;12763;55.802;37.404;2022-09-24T12:19:47;1.38;;;1.00;;
24619;SDS011;12763;55.802;37.404;2022-09-24T12:22:21;1.30;;;1.00;;
24619;SDS011;12763;55.802;37.404;2022-09-24T12:24:51;1.40;;;0.90;;
24619;SDS011;12763;55.802;37.404;2022-09-24T12:27:24;1.75;;;1.23;;
24619;SDS011;12763;55.802;37.404;2022-09-24T12:30:08;2.47;;;1.00;;
24619;SDS011;12763;55.802;37.404;2022-09-24T12:35:37;4.10;;;1.50;;
24619;SDS011;12763;55.802;37.404;2022-09-24T12:46:38;1.30;;;1.20;;
24619;SDS011;12763;55.802;37.404;2022-09-24T12:51:53;2.40;;;1.30;;
24619;SDS011;12763;55.802;37.404;2022-09-24T12:54:33;1.55;;;0.90;;
24619;SDS011;12763;55.802;37.404;2022-09-24T12:59:44;1.38;;;1.20;;
24619;SDS011;12763;55.802;37.404;2022-09-24T13:03:00;2.60;;;1.45;;
24619;SDS011;12763;55.802;37.404;2022-09-24T13:05:15;2.55;;;1.20;;
24619;SDS011;12763;55.802;37.404;2022-09-24T13:07:58;3.38;;;1.55;;
24619;SDS011;12763;55.802;37.404;2022-09-24T13:13:29;3.25;;;1.30;;
24619;SDS011;12763;55.802;37.404;2022-09-24T13:18:41;3.13;;;1.77;;
24619;SDS011;12763;55.802;37.404;2022-09-24T13:21:16;2.42;;;1.40;;
24619;SDS011;12763;55.802;37.404;2022-09-24T13:23:47;2.95;;;1.27;;
24619;SDS011;12763;55.802;37.404;2022-09-24T13:28:53;7.18;;;2.17;;
24619;SDS011;12763;55.802;37.404;2022-09-24T13:31:45;1.88;;;1.10;;
24619;SDS011;12763;55.802;37.404;2022-09-24T13:34:26;1.88;;;1.27;;
24619;SDS011;12763;55.802;37.404;2022-09-24T13:36:58;2.38;;;1.35;;
24619;SDS011;12763;55.802;37.404;2022-09-24T13:45:04;2.70;;;1.10;;
24619;SDS011;12763;55.802;37.404;2022-09-24T13:47:44;1.50;;;1.17;;
24619;SDS011;12763;55.802;37.404;2022-09-24T13:52:53;3.55;;;2.05;;
24619;SDS011;12763;55.802;37.404;2022-09-24T14:01:03;1.85;;;1.35;;
24619;SDS011;12763;55.802;37.404;2022-09-24T14:03:36;1.63;;;1.13;;
24619;SDS011;12763;55.802;37.404;2022-09-24T14:06:13;3.03;;;1.20;;
24619;SDS011;12763;55.802;37.404;2022-09-24T14:08:43;1.75;;;0.80;;
24619;SDS011;12763;55.802;37.404;2022-09-24T14:11:15;2.95;;;0.90;;
24619;SDS011;12763;55.802;37.404;2022-09-24T14:13:52;1.17;;;0.80;;
24619;SDS011;12763;55.802;37.404;2022-09-24T14:16:21;1.77;;;1.05;;
24619;SDS011;12763;55.802;37.404;2022-09-24T14:19:01;3.47;;;1.15;;
24619;SDS011;12763;55.802;37.404;2022-09-24T14:21:43;2.17;;;1.20;;
24619;SDS011;12763;55.802;37.404;2022-09-24T14:24:21;1.60;;;1.45;;
24619;SDS011;12763;55.802;37.404;2022-09-24T14:32:57;2.10;;;1.20;;
24619;SDS011;12763;55.802;37.404;2022-09-24T14:38:06;5.60;;;1.73;;
24619;SDS011;12763;55.802;37.404;2022-09-24T14:41:00;6.10;;;1.63;;
24619;SDS011;12763;55.802;37.404;2022-09-24T14:43:37;3.78;;;1.60;;
24619;SDS011;12763;55.802;37.404;2022-09-24T14:46:34;4.60;;;1.75;;
24619;SDS011;12763;55.802;37.404;2022-09-24T14:49:14;7.20;;;2.58;;
24619;SDS011;12763;55.802;37.404;2022-09-24T14:54:32;3.72;;;1.92;;
24619;SDS011;12763;55.802;37.404;2022-09-24T14:59:36;5.10;;;2.15;;
24619;SDS011;12763;55.802;37.404;2022-09-24T15:04:48;4.28;;;1.73;;
24619;SDS011;12763;55.802;37.404;2022-09-24T15:07:21;7.10;;;2.05;;
24619;SDS011;12763;55.802;37.404;2022-09-24T15:09:53;2.47;;;1.50;;
24619;SDS011;12763;55.802;37.404;2022-09-24T15:12:24;4.97;;;1.70;;
24619;SDS011;12763;55.802;37.404;2022-09-24T15:17:41;3.40;;;1.83;;
24619;SDS011;12763;55.802;37.404;2022-09-24T15:20:11;2.10;;;1.17;;
24619;SDS011;12763;55.802;37.404;2022-09-24T15:22:38;2.75;;;1.38;;
24619;SDS011;12763;55.802;37.404;2022-09-24T15:25:05;6.28;;;1.83;;
24619;SDS011;12763;55.802;37.404;2022-09-24T15:27:39;4.30;;;1.67;;
24619;SDS011;12763;55.802;37.404;2022-09-24T15:30:10;2.35;;;1.67;;
24619;SDS011;12763;55.802;37.404;2022-09-24T15:32:42;2.50;;;1.52;;
24619;SDS011;12763;55.802;37.404;2022-09-24T15:35:08;3.42;;;1.60;;
24619;SDS011;12763;55.802;37.404;2022-09-24T15:37:38;4.35;;;1.77;;
24619;SDS011;12763;55.802;37.404;2022-09-24T15:42:42;4.45;;;1.70;;
24619;SDS011;12763;55.802;37.404;2022-09-24T15:45:18;3.55;;;1.83;;
24619;SDS011;12763;55.802;37.404;2022-09-24T15:47:47;2.53;;;1.60;;
24619;SDS011;12763;55.802;37.404;2022-09-24T15:50:14;2.53;;;1.58;;
24619;SDS011;12763;55.802;37.404;2022-09-24T15:52:46;3.22;;;1.60;;
24619;SDS011;12763;55.802;37.404;2022-09-24T15:55:17;2.60;;;1.55;;
24619;SDS011;12763;55.802;37.404;2022-09-24T15:57:46;4.50;;;1.48;;
24619;SDS011;12763;55.802;37.404;2022-09-24T16:00:13;3.60;;;1.77;;
24619;SDS011;12763;55.802;37.404;2022-09-24T16:02:40;3.33;;;2.10;;
24619;SDS011;12763;55.802;37.404;2022-09-24T16:05:12;4.30;;;2.20;;
24619;SDS011;12763;55.802;37.404;2022-09-24T16:07:39;5.15;;;2.00;;
24619;SDS011;12763;55.802;37.404;2022-09-24T16:10:06;2.42;;;1.45;;
24619;SDS011;12763;55.802;37.404;2022-09-24T16:12:34;2.97;;;2.10;;
24619;SDS011;12763;55.802;37.404;2022-09-24T16:15:00;3.80;;;2.35;;
24619;SDS011;12763;55.802;37.404;2022-09-24T16:17:29;2.30;;;1.55;;
24619;SDS011;12763;55.802;37.404;2022-09-24T16:20:01;2.60;;;1.65;;
24619;SDS011;12763;55.802;37.404;2022-09-24T16:22:28;4.13;;;1.90;;
24619;SDS011;12763;55.802;37.404;2022-09-24T16:24:55;2.05;;;1.60;;
24619;SDS011;12763;55.802;37.404;2022-09-24T16:27:21;2.95;;;1.85;;
24619;SDS011;12763;55.802;37.404;2022-09-24T16:29:47;2.92;;;1.50;;
24619;SDS011;12763;55.802;37.404;2022-09-24T16:32:13;3.70;;;2.05;;
24619;SDS011;12763;55.802;37.404;2022-09-24T16:34:40;3.15;;;2.05;;
24619;SDS011;12763;55.802;37.404;2022-09-24T16:37:09;3.20;;;1.98;;
24619;SDS011;12763;55.802;37.404;2022-09-24T16:39:38;5.20;;;2.05;;
24619;SDS011;12763;55.802;37.404;2022-09-24T16:42:04;3.13;;;1.65;;
24619;SDS011;12763;55.802;37.404;2022-09-24T16:44:30;1.85;;;1.58;;
24619;SDS011;12763;55.802;37.404;2022-09-24T16:47:02;3.58;;;1.95;;
24619;SDS011;12763;55.802;37.404;2022-09-24T16:49:29;4.70;;;2.10;;
24619;SDS011;12763;55.802;37.404;2022-09-24T16:51:55;4.07;;;2.03;;
24619;SDS011;12763;55.802;37.404;2022-09-24T16:54:22;3.50;;;1.65;;
24619;SDS011;12763;55.802;37.404;2022-09-24T16:56:49;2.85;;;1.65;;
24619;SDS011;12763;55.802;37.404;2022-09-24T16:59:16;7.80;;;1.58;;
24619;SDS011;12763;55.802;37.404;2022-09-24T17:01:43;2.72;;;1.60;;
24619;SDS011;12763;55.802;37.404;2022-09-24T17:04:09;6.32;;;2.10;;
24619;SDS011;12763;55.802;37.404;2022-09-24T17:06:36;1.83;;;1.50;;
24619;SDS011;12763;55.802;37.404;2022-09-24T17:09:05;3.92;;;2.03;;
24619;SDS011;12763;55.802;37.404;2022-09-24T17:11:50;2.73;;;1.87;;
24619;SDS011;12763;55.802;37.404;2022-09-24T17:14:16;3.40;;;2.10;;
24619;SDS011;12763;55.802;37.404;2022-09-24T17:16:44;3.25;;;1.92;;
24619;SDS011;12763;55.802;37.404;2022-09-24T17:19:10;4.70;;;1.90;;
24619;SDS011;12763;55.802;37.404;2022-09-24T17:21:38;3.72;;;2.03;;
24619;SDS011;12763;55.802;37.404;2022-09-24T17:24:06;2.60;;;1.60;;
24619;SDS011;12763;55.802;37.404;2022-09-24T17:26:34;3.72;;;1.92;;
24619;SDS011;12763;55.802;37.404;2022-09-24T17:29:04;3.08;;;2.10;;
24619;SDS011;12763;55.802;37.404;2022-09-24T17:31:30;4.85;;;1.80;;
24619;SDS011;12763;55.802;37.404;2022-09-24T17:33:57;3.03;;;1.73;;
24619;SDS011;12763;55.802;37.404;2022-09-24T17:36:26;2.42;;;1.73;;
24619;SDS011;12763;55.802;37.404;2022-09-24T17:38:53;3.78;;;1.70;;
24619;SDS011;12763;55.802;37.404;2022-09-24T17:41:21;2.53;;;1.58;;
24619;SDS011;12763;55.802;37.404;2022-09-24T17:43:51;2.92;;;1.92;;
24619;SDS011;12763;55.802;37.404;2022-09-24T17:46:18;3.67;;;2.00;;